sensor_id;sensor_type;location;lat;lon;timestamp;temperature;humidity
36716;DHT22;22699;51.034;3.730;2022-12-07T00:01:22;7.20;99.90
36716;DHT22;22699;51.034;3.730;2022-12-07T00:03:51;7.20;99.90
36716;DHT22;22699;51.034;3.730;2022-12-07T00:06:18;7.10;99.90
36716;DHT22;22699;51.034;3.730;2022-12-07T00:08:47;6.90;99.90
36716;DHT22;22699;51.034;3.730;2022-12-07T00:11:18;7.00;99.90
36716;DHT22;22699;51.034;3.730;2022-12-07T00:13:46;7.00;99.90
36716;DHT22;22699;51.034;3.730;2022-12-07T00:16:16;7.20;99.90
36716;DHT22;22699;51.034;3.730;2022-12-07T00:18:44;7.40;99.90
36716;DHT22;22699;51.034;3.730;2022-12-07T00:21:18;7.40;99.90
36716;DHT22;22699;51.034;3.730;2022-12-07T00:23:45;7.40;99.90
36716;DHT22;22699;51.034;3.730;2022-12-07T00:26:19;7.40;99.90
36716;DHT22;22699;51.034;3.730;2022-12-07T00:28:47;7.50;99.90
36716;DHT22;22699;51.034;3.730;2022-12-07T00:31:16;7.30;99.90
36716;DHT22;22699;51.034;3.730;2022-12-07T00:33:45;7.40;99.90
36716;DHT22;22699;51.034;3.730;2022-12-07T00:36:14;7.40;99.90
36716;DHT22;22699;51.034;3.730;2022-12-07T00:38:40;7.40;99.90
36716;DHT22;22699;51.034;3.730;2022-12-07T00:41:16;7.50;99.90
36716;DHT22;22699;51.034;3.730;2022-12-07T00:43:44;7.30;99.90
36716;DHT22;22699;51.034;3.730;2022-12-07T00:46:10;7.20;99.90
36716;DHT22;22699;51.034;3.730;2022-12-07T00:48:36;7.10;99.90
36716;DHT22;22699;51.034;3.730;2022-12-07T00:51:03;7.00;99.90
36716;DHT22;22699;51.034;3.730;2022-12-07T00:53:29;7.20;99.90
36716;DHT22;22699;51.034;3.730;2022-12-07T00:55:57;7.40;99.90
36716;DHT22;22699;51.034;3.730;2022-12-07T00:58:26;7.10;99.90
36716;DHT22;22699;51.034;3.730;2022-12-07T01:00:53;7.10;99.90
36716;DHT22;22699;51.034;3.730;2022-12-07T01:03:22;7.30;99.90
36716;DHT22;22699;51.034;3.730;2022-12-07T01:05:52;7.10;99.90
36716;DHT22;22699;51.034;3.730;2022-12-07T01:08:19;6.90;99.90
36716;DHT22;22699;51.034;3.730;2022-12-07T01:10:47;6.70;99.90
36716;DHT22;22699;51.034;3.730;2022-12-07T01:13:12;6.60;99.90
36716;DHT22;22699;51.034;3.730;2022-12-07T01:15:44;6.50;99.90
36716;DHT22;22699;51.034;3.730;2022-12-07T01:18:10;6.50;99.90
36716;DHT22;22699;51.034;3.730;2022-12-07T01:20:36;6.60;99.90
36716;DHT22;22699;51.034;3.730;2022-12-07T01:23:02;6.70;99.90
36716;DHT22;22699;51.034;3.730;2022-12-07T01:25:29;6.60;99.90
36716;DHT22;22699;51.034;3.730;2022-12-07T01:28:01;6.60;99.90
36716;DHT22;22699;51.034;3.730;2022-12-07T01:30:27;6.60;99.90
36716;DHT22;22699;51.034;3.730;2022-12-07T01:32:54;6.50;99.90
36716;DHT22;22699;51.034;3.730;2022-12-07T01:35:20;6.50;99.90
36716;DHT22;22699;51.034;3.730;2022-12-07T01:37:46;6.40;99.90
36716;DHT22;22699;51.034;3.730;2022-12-07T01:40:11;6.40;99.90
36716;DHT22;22699;51.034;3.730;2022-12-07T01:42:37;6.50;99.90
36716;DHT22;22699;51.034;3.730;2022-12-07T01:45:38;6.50;99.90
36716;DHT22;22699;51.034;3.730;2022-12-07T01:48:05;6.70;99.90
36716;DHT22;22699;51.034;3.730;2022-12-07T01:50:33;6.70;99.90
36716;DHT22;22699;51.034;3.730;2022-12-07T01:53:02;6.80;99.90
36716;DHT22;22699;51.034;3.730;2022-12-07T01:55:29;6.80;99.90
36716;DHT22;22699;51.034;3.730;2022-12-07T01:57:55;6.80;99.90
36716;DHT22;22699;51.034;3.730;2022-12-07T02:00:22;6.60;99.90
36716;DHT22;22699;51.034;3.730;2022-12-07T02:02:49;6.40;99.90
36716;DHT22;22699;51.034;3.730;2022-12-07T02:05:16;6.20;99.90
36716;DHT22;22699;51.034;3.730;2022-12-07T02:07:42;6.10;99.90
36716;DHT22;22699;51.034;3.730;2022-12-07T02:10:29;5.90;99.90
36716;DHT22;22699;51.034;3.730;2022-12-07T02:13:06;5.90;99.90
36716;DHT22;22699;51.034;3.730;2022-12-07T02:32:32;5.80;99.90
36716;DHT22;22699;51.034;3.730;2022-12-07T02:35:07;5.80;99.90
36716;DHT22;22699;51.034;3.730;2022-12-07T02:37:55;5.80;99.90
36716;DHT22;22699;51.034;3.730;2022-12-07T02:40:52;5.80;99.90
36716;DHT22;22699;51.034;3.730;2022-12-07T02:43:38;5.70;99.90
36716;DHT22;22699;51.034;3.730;2022-12-07T02:46:15;5.60;99.90
36716;DHT22;22699;51.034;3.730;2022-12-07T02:48:47;5.60;99.90
36716;DHT22;22699;51.034;3.730;2022-12-07T02:51:18;5.70;99.90
36716;DHT22;22699;51.034;3.730;2022-12-07T02:53:44;5.90;99.90
36716;DHT22;22699;51.034;3.730;2022-12-07T02:56:25;5.90;99.90
36716;DHT22;22699;51.034;3.730;2022-12-07T02:59:19;5.90;99.90
36716;DHT22;22699;51.034;3.730;2022-12-07T03:10:17;5.90;99.90
36716;DHT22;22699;51.034;3.730;2022-12-07T03:12:58;6.10;99.90
36716;DHT22;22699;51.034;3.730;2022-12-07T03:15:39;6.10;99.90
36716;DHT22;22699;51.034;3.730;2022-12-07T03:18:11;6.20;99.90
36716;DHT22;22699;51.034;3.730;2022-12-07T03:20:41;6.50;99.90
36716;DHT22;22699;51.034;3.730;2022-12-07T03:23:09;6.50;99.90
36716;DHT22;22699;51.034;3.730;2022-12-07T03:25:41;6.40;99.90
36716;DHT22;22699;51.034;3.730;2022-12-07T03:28:11;6.30;99.90
36716;DHT22;22699;51.034;3.730;2022-12-07T03:30:48;6.30;99.90
36716;DHT22;22699;51.034;3.730;2022-12-07T03:36:35;6.10;99.90
36716;DHT22;22699;51.034;3.730;2022-12-07T03:41:47;5.90;99.90
36716;DHT22;22699;51.034;3.730;2022-12-07T03:44:15;6.00;99.90
36716;DHT22;22699;51.034;3.730;2022-12-07T03:49:31;6.20;99.90
36716;DHT22;22699;51.034;3.730;2022-12-07T03:52:22;6.30;99.90
36716;DHT22;22699;51.034;3.730;2022-12-07T03:55:49;6.30;99.90
36716;DHT22;22699;51.034;3.730;2022-12-07T03:57:46;6.30;99.90
36716;DHT22;22699;51.034;3.730;2022-12-07T04:00:14;6.20;99.90
36716;DHT22;22699;51.034;3.730;2022-12-07T04:02:41;6.20;99.90
36716;DHT22;22699;51.034;3.730;2022-12-07T04:05:09;6.10;99.90
36716;DHT22;22699;51.034;3.730;2022-12-07T04:07:35;6.20;99.90
36716;DHT22;22699;51.034;3.730;2022-12-07T04:10:01;6.20;99.90
36716;DHT22;22699;51.034;3.730;2022-12-07T04:12:28;6.20;99.90
36716;DHT22;22699;51.034;3.730;2022-12-07T04:14:55;6.20;99.90
36716;DHT22;22699;51.034;3.730;2022-12-07T04:17:21;6.10;99.90
36716;DHT22;22699;51.034;3.730;2022-12-07T04:19:47;6.00;99.90
36716;DHT22;22699;51.034;3.730;2022-12-07T04:22:14;5.80;99.90
36716;DHT22;22699;51.034;3.730;2022-12-07T04:24:39;5.90;99.90
36716;DHT22;22699;51.034;3.730;2022-12-07T04:27:06;6.00;99.90
36716;DHT22;22699;51.034;3.730;2022-12-07T04:29:33;6.00;99.90
36716;DHT22;22699;51.034;3.730;2022-12-07T04:31:59;6.00;99.90
36716;DHT22;22699;51.034;3.730;2022-12-07T04:34:25;6.00;99.90
36716;DHT22;22699;51.034;3.730;2022-12-07T04:36:53;6.10;99.90
36716;DHT22;22699;51.034;3.730;2022-12-07T04:39:25;6.10;99.90
36716;DHT22;22699;51.034;3.730;2022-12-07T04:41:51;6.00;99.90
36716;DHT22;22699;51.034;3.730;2022-12-07T04:44:17;5.90;99.90
36716;DHT22;22699;51.034;3.730;2022-12-07T04:46:45;5.90;99.90
36716;DHT22;22699;51.034;3.730;2022-12-07T04:49:11;5.80;99.90
36716;DHT22;22699;51.034;3.730;2022-12-07T04:51:37;5.80;99.90
36716;DHT22;22699;51.034;3.730;2022-12-07T04:54:04;5.70;99.90
36716;DHT22;22699;51.034;3.730;2022-12-07T04:56:29;5.80;99.90
36716;DHT22;22699;51.034;3.730;2022-12-07T04:58:57;5.80;99.90
36716;DHT22;22699;51.034;3.730;2022-12-07T05:01:24;5.90;99.90
36716;DHT22;22699;51.034;3.730;2022-12-07T05:03:50;6.10;99.90
36716;DHT22;22699;51.034;3.730;2022-12-07T05:06:16;6.40;99.90
36716;DHT22;22699;51.034;3.730;2022-12-07T05:08:43;6.40;99.90
36716;DHT22;22699;51.034;3.730;2022-12-07T05:11:10;6.30;99.90
36716;DHT22;22699;51.034;3.730;2022-12-07T05:14:02;6.40;99.90
36716;DHT22;22699;51.034;3.730;2022-12-07T05:16:28;6.50;99.90
36716;DHT22;22699;51.034;3.730;2022-12-07T05:18:54;6.40;99.90
36716;DHT22;22699;51.034;3.730;2022-12-07T05:21:20;6.20;99.90
36716;DHT22;22699;51.034;3.730;2022-12-07T05:23:48;6.40;99.90
36716;DHT22;22699;51.034;3.730;2022-12-07T05:26:13;6.50;99.90
36716;DHT22;22699;51.034;3.730;2022-12-07T05:28:39;6.30;99.90
36716;DHT22;22699;51.034;3.730;2022-12-07T05:31:04;6.30;99.90
36716;DHT22;22699;51.034;3.730;2022-12-07T05:33:30;6.40;99.90
36716;DHT22;22699;51.034;3.730;2022-12-07T05:35:58;6.50;99.90
36716;DHT22;22699;51.034;3.730;2022-12-07T05:38:25;6.40;99.90
36716;DHT22;22699;51.034;3.730;2022-12-07T05:40:53;6.30;99.90
36716;DHT22;22699;51.034;3.730;2022-12-07T05:43:20;6.10;99.90
36716;DHT22;22699;51.034;3.730;2022-12-07T05:45:48;6.10;99.90
36716;DHT22;22699;51.034;3.730;2022-12-07T05:48:17;5.90;99.90
36716;DHT22;22699;51.034;3.730;2022-12-07T05:50:42;5.80;99.90
36716;DHT22;22699;51.034;3.730;2022-12-07T05:53:09;5.80;99.90
36716;DHT22;22699;51.034;3.730;2022-12-07T05:55:35;5.80;99.90
36716;DHT22;22699;51.034;3.730;2022-12-07T05:58:01;5.70;99.90
36716;DHT22;22699;51.034;3.730;2022-12-07T06:00:48;5.60;99.90
36716;DHT22;22699;51.034;3.730;2022-12-07T06:03:14;5.60;99.90
36716;DHT22;22699;51.034;3.730;2022-12-07T06:05:40;5.60;99.90
36716;DHT22;22699;51.034;3.730;2022-12-07T06:08:13;5.60;99.90
36716;DHT22;22699;51.034;3.730;2022-12-07T06:10:40;5.60;99.90
36716;DHT22;22699;51.034;3.730;2022-12-07T06:13:07;5.70;99.90
36716;DHT22;22699;51.034;3.730;2022-12-07T06:15:35;5.60;99.90
36716;DHT22;22699;51.034;3.730;2022-12-07T06:18:01;5.60;99.90
36716;DHT22;22699;51.034;3.730;2022-12-07T06:20:28;5.60;99.90
36716;DHT22;22699;51.034;3.730;2022-12-07T06:22:57;5.50;99.90
36716;DHT22;22699;51.034;3.730;2022-12-07T06:25:22;5.50;99.90
36716;DHT22;22699;51.034;3.730;2022-12-07T06:27:48;5.50;99.90
36716;DHT22;22699;51.034;3.730;2022-12-07T06:30:14;5.40;99.90
36716;DHT22;22699;51.034;3.730;2022-12-07T06:32:39;5.40;99.90
36716;DHT22;22699;51.034;3.730;2022-12-07T06:35:05;5.40;99.90
36716;DHT22;22699;51.034;3.730;2022-12-07T06:37:31;5.30;99.90
36716;DHT22;22699;51.034;3.730;2022-12-07T06:39:57;5.20;99.90
36716;DHT22;22699;51.034;3.730;2022-12-07T06:42:24;5.40;99.90
36716;DHT22;22699;51.034;3.730;2022-12-07T06:44:51;5.20;99.90
36716;DHT22;22699;51.034;3.730;2022-12-07T06:47:16;5.20;99.90
36716;DHT22;22699;51.034;3.730;2022-12-07T06:49:42;5.20;99.90
36716;DHT22;22699;51.034;3.730;2022-12-07T06:52:08;4.90;99.90
36716;DHT22;22699;51.034;3.730;2022-12-07T06:54:35;5.60;99.90
36716;DHT22;22699;51.034;3.730;2022-12-07T06:57:04;5.80;99.90
36716;DHT22;22699;51.034;3.730;2022-12-07T06:59:30;5.90;99.90
36716;DHT22;22699;51.034;3.730;2022-12-07T07:01:55;5.80;99.90
36716;DHT22;22699;51.034;3.730;2022-12-07T07:04:21;5.70;99.90
36716;DHT22;22699;51.034;3.730;2022-12-07T07:06:50;5.70;99.90
36716;DHT22;22699;51.034;3.730;2022-12-07T07:09:29;5.70;99.90
36716;DHT22;22699;51.034;3.730;2022-12-07T07:11:55;5.80;99.90
36716;DHT22;22699;51.034;3.730;2022-12-07T07:14:21;5.90;99.90
36716;DHT22;22699;51.034;3.730;2022-12-07T07:16:47;6.40;99.90
36716;DHT22;22699;51.034;3.730;2022-12-07T07:19:13;5.80;99.90
36716;DHT22;22699;51.034;3.730;2022-12-07T07:21:38;5.80;99.90
36716;DHT22;22699;51.034;3.730;2022-12-07T07:24:04;5.80;99.90
36716;DHT22;22699;51.034;3.730;2022-12-07T07:26:32;5.90;99.90
36716;DHT22;22699;51.034;3.730;2022-12-07T07:29:03;6.10;99.90
36716;DHT22;22699;51.034;3.730;2022-12-07T07:31:28;6.20;99.90
36716;DHT22;22699;51.034;3.730;2022-12-07T07:34:01;6.30;99.90
36716;DHT22;22699;51.034;3.730;2022-12-07T07:36:37;6.30;99.90
36716;DHT22;22699;51.034;3.730;2022-12-07T07:39:17;6.40;99.90
36716;DHT22;22699;51.034;3.730;2022-12-07T07:41:43;6.50;99.90
36716;DHT22;22699;51.034;3.730;2022-12-07T07:44:09;6.60;99.90
36716;DHT22;22699;51.034;3.730;2022-12-07T07:46:36;6.50;99.90
36716;DHT22;22699;51.034;3.730;2022-12-07T07:49:06;6.40;99.90
36716;DHT22;22699;51.034;3.730;2022-12-07T07:51:32;6.30;99.90
36716;DHT22;22699;51.034;3.730;2022-12-07T07:53:59;6.30;99.90
36716;DHT22;22699;51.034;3.730;2022-12-07T07:56:24;6.30;99.90
36716;DHT22;22699;51.034;3.730;2022-12-07T07:58:53;6.30;99.90
36716;DHT22;22699;51.034;3.730;2022-12-07T08:01:21;6.20;99.90
36716;DHT22;22699;51.034;3.730;2022-12-07T08:03:46;6.20;99.90
36716;DHT22;22699;51.034;3.730;2022-12-07T08:06:13;6.20;99.90
36716;DHT22;22699;51.034;3.730;2022-12-07T08:08:40;6.40;99.90
36716;DHT22;22699;51.034;3.730;2022-12-07T08:11:08;6.50;99.90
36716;DHT22;22699;51.034;3.730;2022-12-07T08:13:36;6.40;99.90
36716;DHT22;22699;51.034;3.730;2022-12-07T08:16:08;6.40;99.90
36716;DHT22;22699;51.034;3.730;2022-12-07T08:18:39;6.40;99.90
36716;DHT22;22699;51.034;3.730;2022-12-07T08:21:07;6.40;99.90
36716;DHT22;22699;51.034;3.730;2022-12-07T08:23:33;6.20;99.90
36716;DHT22;22699;51.034;3.730;2022-12-07T08:26:05;6.20;99.90
36716;DHT22;22699;51.034;3.730;2022-12-07T08:28:39;7.00;99.90
36716;DHT22;22699;51.034;3.730;2022-12-07T08:31:17;6.30;99.90
36716;DHT22;22699;51.034;3.730;2022-12-07T08:33:46;6.60;99.90
36716;DHT22;22699;51.034;3.730;2022-12-07T08:36:12;7.80;99.90
36716;DHT22;22699;51.034;3.730;2022-12-07T08:38:39;9.20;99.90
36716;DHT22;22699;51.034;3.730;2022-12-07T08:41:06;10.50;99.90
36716;DHT22;22699;51.034;3.730;2022-12-07T08:43:32;10.00;99.90
36716;DHT22;22699;51.034;3.730;2022-12-07T08:46:25;9.80;99.90
36716;DHT22;22699;51.034;3.730;2022-12-07T08:48:57;9.50;99.90
36716;DHT22;22699;51.034;3.730;2022-12-07T08:51:24;9.30;99.90
36716;DHT22;22699;51.034;3.730;2022-12-07T08:53:51;9.30;99.90
36716;DHT22;22699;51.034;3.730;2022-12-07T08:56:19;9.20;99.90
36716;DHT22;22699;51.034;3.730;2022-12-07T08:58:45;8.80;99.90
36716;DHT22;22699;51.034;3.730;2022-12-07T09:01:11;8.10;99.90
36716;DHT22;22699;51.034;3.730;2022-12-07T09:03:37;7.90;99.90
36716;DHT22;22699;51.034;3.730;2022-12-07T09:06:03;7.90;99.90
36716;DHT22;22699;51.034;3.730;2022-12-07T09:08:33;7.90;99.90
36716;DHT22;22699;51.034;3.730;2022-12-07T09:10:59;8.30;99.90
36716;DHT22;22699;51.034;3.730;2022-12-07T09:13:25;8.70;99.90
36716;DHT22;22699;51.034;3.730;2022-12-07T09:15:52;9.10;99.90
36716;DHT22;22699;51.034;3.730;2022-12-07T09:18:19;9.50;99.90
36716;DHT22;22699;51.034;3.730;2022-12-07T09:20:45;9.60;99.90
36716;DHT22;22699;51.034;3.730;2022-12-07T09:23:12;9.80;99.90
36716;DHT22;22699;51.034;3.730;2022-12-07T09:25:39;9.90;99.90
36716;DHT22;22699;51.034;3.730;2022-12-07T09:28:06;10.00;99.90
36716;DHT22;22699;51.034;3.730;2022-12-07T09:30:32;10.20;99.90
36716;DHT22;22699;51.034;3.730;2022-12-07T09:32:57;10.20;99.90
36716;DHT22;22699;51.034;3.730;2022-12-07T09:35:24;9.80;99.90
36716;DHT22;22699;51.034;3.730;2022-12-07T09:37:51;9.70;99.90
36716;DHT22;22699;51.034;3.730;2022-12-07T09:40:22;10.00;99.90
36716;DHT22;22699;51.034;3.730;2022-12-07T09:42:52;9.50;99.90
36716;DHT22;22699;51.034;3.730;2022-12-07T09:45:32;9.40;99.90
36716;DHT22;22699;51.034;3.730;2022-12-07T09:48:09;9.10;99.90
36716;DHT22;22699;51.034;3.730;2022-12-07T09:50:47;9.00;99.90
36716;DHT22;22699;51.034;3.730;2022-12-07T09:53:27;8.90;99.90
36716;DHT22;22699;51.034;3.730;2022-12-07T09:55:56;8.60;99.90
36716;DHT22;22699;51.034;3.730;2022-12-07T09:58:25;8.60;99.90
36716;DHT22;22699;51.034;3.730;2022-12-07T10:01:21;8.60;99.90
36716;DHT22;22699;51.034;3.730;2022-12-07T10:04:08;8.50;99.90
36716;DHT22;22699;51.034;3.730;2022-12-07T10:06:37;8.50;99.90
36716;DHT22;22699;51.034;3.730;2022-12-07T10:09:12;8.70;99.90
36716;DHT22;22699;51.034;3.730;2022-12-07T10:12:11;8.60;99.90
36716;DHT22;22699;51.034;3.730;2022-12-07T10:15:01;8.60;99.90
36716;DHT22;22699;51.034;3.730;2022-12-07T10:17:48;8.10;99.90
36716;DHT22;22699;51.034;3.730;2022-12-07T10:20:19;7.80;99.90
36716;DHT22;22699;51.034;3.730;2022-12-07T10:23:00;7.80;99.90
36716;DHT22;22699;51.034;3.730;2022-12-07T10:25:35;7.70;99.90
36716;DHT22;22699;51.034;3.730;2022-12-07T10:28:09;7.70;99.90
36716;DHT22;22699;51.034;3.730;2022-12-07T10:30:57;7.70;99.90
36716;DHT22;22699;51.034;3.730;2022-12-07T10:33:33;7.80;99.90
36716;DHT22;22699;51.034;3.730;2022-12-07T10:36:15;7.90;99.90
36716;DHT22;22699;51.034;3.730;2022-12-07T10:38:50;7.70;99.90
36716;DHT22;22699;51.034;3.730;2022-12-07T10:41:17;7.80;99.90
36716;DHT22;22699;51.034;3.730;2022-12-07T10:43:55;8.10;99.90
36716;DHT22;22699;51.034;3.730;2022-12-07T10:46:37;8.50;99.90
36716;DHT22;22699;51.034;3.730;2022-12-07T10:52:08;8.90;99.90
36716;DHT22;22699;51.034;3.730;2022-12-07T11:02:36;9.20;99.90
36716;DHT22;22699;51.034;3.730;2022-12-07T11:10:50;9.60;99.90
36716;DHT22;22699;51.034;3.730;2022-12-07T11:13:29;9.30;99.90
36716;DHT22;22699;51.034;3.730;2022-12-07T11:18:43;9.40;99.90
36716;DHT22;22699;51.034;3.730;2022-12-07T11:21:24;9.10;99.90
36716;DHT22;22699;51.034;3.730;2022-12-07T11:24:03;8.80;99.90
36716;DHT22;22699;51.034;3.730;2022-12-07T11:37:51;8.40;99.90
36716;DHT22;22699;51.034;3.730;2022-12-07T11:40:31;8.80;99.90
36716;DHT22;22699;51.034;3.730;2022-12-07T11:43:26;8.90;99.90
36716;DHT22;22699;51.034;3.730;2022-12-07T11:48:40;8.80;99.90
36716;DHT22;22699;51.034;3.730;2022-12-07T11:51:10;8.80;99.90
36716;DHT22;22699;51.034;3.730;2022-12-07T11:53:56;9.10;99.90
36716;DHT22;22699;51.034;3.730;2022-12-07T11:56:26;9.00;99.90
36716;DHT22;22699;51.034;3.730;2022-12-07T11:59:45;9.10;99.90
36716;DHT22;22699;51.034;3.730;2022-12-07T12:02:14;9.50;99.90
36716;DHT22;22699;51.034;3.730;2022-12-07T12:05:13;9.90;99.90
36716;DHT22;22699;51.034;3.730;2022-12-07T12:07:41;10.40;99.90
36716;DHT22;22699;51.034;3.730;2022-12-07T12:10:30;10.60;99.90
36716;DHT22;22699;51.034;3.730;2022-12-07T12:13:28;10.70;99.90
36716;DHT22;22699;51.034;3.730;2022-12-07T12:16:11;10.80;99.90
36716;DHT22;22699;51.034;3.730;2022-12-07T12:18:59;10.30;99.90
36716;DHT22;22699;51.034;3.730;2022-12-07T12:21:30;10.30;99.90
36716;DHT22;22699;51.034;3.730;2022-12-07T12:24:00;10.20;99.90
36716;DHT22;22699;51.034;3.730;2022-12-07T12:26:31;10.20;99.90
36716;DHT22;22699;51.034;3.730;2022-12-07T12:29:00;10.00;99.90
36716;DHT22;22699;51.034;3.730;2022-12-07T12:33:57;8.70;99.90
36716;DHT22;22699;51.034;3.730;2022-12-07T12:39:20;8.60;99.90
36716;DHT22;22699;51.034;3.730;2022-12-07T12:46:53;8.20;99.90
36716;DHT22;22699;51.034;3.730;2022-12-07T12:57:07;8.60;99.90
36716;DHT22;22699;51.034;3.730;2022-12-07T13:10:33;8.90;99.90
36716;DHT22;22699;51.034;3.730;2022-12-07T13:34:02;8.40;99.90
36716;DHT22;22699;51.034;3.730;2022-12-07T13:36:38;8.60;99.90
36716;DHT22;22699;51.034;3.730;2022-12-07T13:39:18;8.70;99.90
36716;DHT22;22699;51.034;3.730;2022-12-07T13:41:44;8.60;99.90
36716;DHT22;22699;51.034;3.730;2022-12-07T13:44:17;8.40;99.90
36716;DHT22;22699;51.034;3.730;2022-12-07T13:49:29;8.50;99.90
36716;DHT22;22699;51.034;3.730;2022-12-07T13:52:16;8.40;99.90
36716;DHT22;22699;51.034;3.730;2022-12-07T13:54:55;8.90;99.90
36716;DHT22;22699;51.034;3.730;2022-12-07T13:57:21;9.00;99.90
36716;DHT22;22699;51.034;3.730;2022-12-07T13:59:48;9.00;99.90
36716;DHT22;22699;51.034;3.730;2022-12-07T14:02:34;9.30;99.90
36716;DHT22;22699;51.034;3.730;2022-12-07T14:13:22;9.30;99.90
36716;DHT22;22699;51.034;3.730;2022-12-07T14:15:51;9.40;99.90
36716;DHT22;22699;51.034;3.730;2022-12-07T14:18:49;9.40;99.90
36716;DHT22;22699;51.034;3.730;2022-12-07T14:21:17;9.50;99.90
36716;DHT22;22699;51.034;3.730;2022-12-07T14:23:44;9.40;99.90
36716;DHT22;22699;51.034;3.730;2022-12-07T14:26:20;9.30;99.90
36716;DHT22;22699;51.034;3.730;2022-12-07T14:28:46;9.40;99.90
36716;DHT22;22699;51.034;3.730;2022-12-07T14:31:15;9.60;99.90
36716;DHT22;22699;51.034;3.730;2022-12-07T14:33:41;9.50;99.90
36716;DHT22;22699;51.034;3.730;2022-12-07T14:36:12;9.30;99.90
36716;DHT22;22699;51.034;3.730;2022-12-07T14:38:38;9.20;99.90
36716;DHT22;22699;51.034;3.730;2022-12-07T14:41:16;9.30;99.90
36716;DHT22;22699;51.034;3.730;2022-12-07T14:44:04;9.10;99.90
36716;DHT22;22699;51.034;3.730;2022-12-07T14:46:33;8.70;99.90
36716;DHT22;22699;51.034;3.730;2022-12-07T14:48:59;8.60;99.90
36716;DHT22;22699;51.034;3.730;2022-12-07T14:51:24;8.60;99.90
36716;DHT22;22699;51.034;3.730;2022-12-07T14:53:50;8.90;99.90
36716;DHT22;22699;51.034;3.730;2022-12-07T14:56:18;8.70;99.90
36716;DHT22;22699;51.034;3.730;2022-12-07T14:58:43;8.70;99.90
36716;DHT22;22699;51.034;3.730;2022-12-07T15:01:09;8.70;99.90
36716;DHT22;22699;51.034;3.730;2022-12-07T15:03:34;8.80;99.90
36716;DHT22;22699;51.034;3.730;2022-12-07T15:06:04;8.90;99.90
36716;DHT22;22699;51.034;3.730;2022-12-07T15:08:30;8.90;99.90
36716;DHT22;22699;51.034;3.730;2022-12-07T15:10:55;8.90;99.90
36716;DHT22;22699;51.034;3.730;2022-12-07T15:13:21;8.80;99.90
36716;DHT22;22699;51.034;3.730;2022-12-07T15:16:10;8.60;99.90
36716;DHT22;22699;51.034;3.730;2022-12-07T15:18:36;8.40;99.90
36716;DHT22;22699;51.034;3.730;2022-12-07T15:21:02;8.40;99.90
36716;DHT22;22699;51.034;3.730;2022-12-07T15:23:28;8.50;99.90
36716;DHT22;22699;51.034;3.730;2022-12-07T15:25:54;8.60;99.90
36716;DHT22;22699;51.034;3.730;2022-12-07T15:28:22;8.50;99.90
36716;DHT22;22699;51.034;3.730;2022-12-07T15:30:50;8.60;99.90
36716;DHT22;22699;51.034;3.730;2022-12-07T15:33:17;8.50;99.90
36716;DHT22;22699;51.034;3.730;2022-12-07T15:35:44;8.30;99.90
36716;DHT22;22699;51.034;3.730;2022-12-07T15:38:10;8.00;99.90
36716;DHT22;22699;51.034;3.730;2022-12-07T15:40:35;7.80;99.90
36716;DHT22;22699;51.034;3.730;2022-12-07T15:43:02;7.80;99.90
36716;DHT22;22699;51.034;3.730;2022-12-07T15:45:29;7.70;99.90
36716;DHT22;22699;51.034;3.730;2022-12-07T15:47:55;7.70;99.90
36716;DHT22;22699;51.034;3.730;2022-12-07T15:50:21;7.70;99.90
36716;DHT22;22699;51.034;3.730;2022-12-07T15:52:48;7.60;99.90
36716;DHT22;22699;51.034;3.730;2022-12-07T15:55:13;7.50;99.90
36716;DHT22;22699;51.034;3.730;2022-12-07T15:57:40;7.30;99.90
36716;DHT22;22699;51.034;3.730;2022-12-07T16:00:07;7.40;99.90
36716;DHT22;22699;51.034;3.730;2022-12-07T16:02:36;7.50;99.90
36716;DHT22;22699;51.034;3.730;2022-12-07T16:05:02;7.40;99.90
36716;DHT22;22699;51.034;3.730;2022-12-07T16:07:28;7.60;99.90
36716;DHT22;22699;51.034;3.730;2022-12-07T16:09:55;7.40;99.90
36716;DHT22;22699;51.034;3.730;2022-12-07T16:12:20;7.30;99.90
36716;DHT22;22699;51.034;3.730;2022-12-07T16:14:46;7.10;99.90
36716;DHT22;22699;51.034;3.730;2022-12-07T16:17:12;7.20;99.90
36716;DHT22;22699;51.034;3.730;2022-12-07T16:19:38;7.10;99.90
36716;DHT22;22699;51.034;3.730;2022-12-07T16:22:04;7.10;99.90
36716;DHT22;22699;51.034;3.730;2022-12-07T16:24:31;7.20;99.90
36716;DHT22;22699;51.034;3.730;2022-12-07T16:26:57;6.90;99.90
36716;DHT22;22699;51.034;3.730;2022-12-07T16:29:23;6.90;99.90
36716;DHT22;22699;51.034;3.730;2022-12-07T16:31:51;6.90;99.90
36716;DHT22;22699;51.034;3.730;2022-12-07T16:34:17;6.90;99.90
36716;DHT22;22699;51.034;3.730;2022-12-07T16:36:43;6.90;99.90
36716;DHT22;22699;51.034;3.730;2022-12-07T16:39:09;7.00;99.90
36716;DHT22;22699;51.034;3.730;2022-12-07T16:41:35;6.90;99.90
36716;DHT22;22699;51.034;3.730;2022-12-07T16:44:06;6.90;99.90
36716;DHT22;22699;51.034;3.730;2022-12-07T16:46:33;6.80;99.90
36716;DHT22;22699;51.034;3.730;2022-12-07T16:48:59;6.80;99.90
36716;DHT22;22699;51.034;3.730;2022-12-07T16:51:25;6.80;99.90
36716;DHT22;22699;51.034;3.730;2022-12-07T16:53:52;6.90;99.90
36716;DHT22;22699;51.034;3.730;2022-12-07T16:56:20;7.10;99.90
36716;DHT22;22699;51.034;3.730;2022-12-07T16:58:46;7.50;99.90
36716;DHT22;22699;51.034;3.730;2022-12-07T17:01:19;7.50;99.90
36716;DHT22;22699;51.034;3.730;2022-12-07T17:03:45;7.50;99.90
36716;DHT22;22699;51.034;3.730;2022-12-07T17:06:21;7.40;99.90
36716;DHT22;22699;51.034;3.730;2022-12-07T17:08:51;7.40;99.90
36716;DHT22;22699;51.034;3.730;2022-12-07T17:11:22;7.40;99.90
36716;DHT22;22699;51.034;3.730;2022-12-07T17:13:49;7.60;99.90
36716;DHT22;22699;51.034;3.730;2022-12-07T17:16:34;7.90;99.90
36716;DHT22;22699;51.034;3.730;2022-12-07T17:19:06;7.70;99.90
36716;DHT22;22699;51.034;3.730;2022-12-07T17:21:33;7.60;99.90
36716;DHT22;22699;51.034;3.730;2022-12-07T17:24:00;7.70;99.90
36716;DHT22;22699;51.034;3.730;2022-12-07T17:26:27;7.80;99.90
36716;DHT22;22699;51.034;3.730;2022-12-07T17:28:53;7.80;99.90
36716;DHT22;22699;51.034;3.730;2022-12-07T17:31:21;7.90;99.90
36716;DHT22;22699;51.034;3.730;2022-12-07T17:33:47;7.80;99.90
36716;DHT22;22699;51.034;3.730;2022-12-07T17:36:19;7.70;99.90
36716;DHT22;22699;51.034;3.730;2022-12-07T17:38:45;7.40;99.90
36716;DHT22;22699;51.034;3.730;2022-12-07T17:41:12;7.10;99.90
36716;DHT22;22699;51.034;3.730;2022-12-07T17:43:38;6.90;99.90
36716;DHT22;22699;51.034;3.730;2022-12-07T17:46:08;6.70;99.90
36716;DHT22;22699;51.034;3.730;2022-12-07T17:48:34;6.50;99.90
36716;DHT22;22699;51.034;3.730;2022-12-07T17:51:00;6.40;99.90
36716;DHT22;22699;51.034;3.730;2022-12-07T17:53:49;6.50;99.90
36716;DHT22;22699;51.034;3.730;2022-12-07T17:56:15;6.30;99.90
36716;DHT22;22699;51.034;3.730;2022-12-07T17:58:40;6.20;99.90
36716;DHT22;22699;51.034;3.730;2022-12-07T18:01:09;6.20;99.90
36716;DHT22;22699;51.034;3.730;2022-12-07T18:03:37;6.20;99.90
36716;DHT22;22699;51.034;3.730;2022-12-07T18:06:04;6.20;99.90
36716;DHT22;22699;51.034;3.730;2022-12-07T18:08:34;6.10;99.90
36716;DHT22;22699;51.034;3.730;2022-12-07T18:11:04;6.20;99.90
36716;DHT22;22699;51.034;3.730;2022-12-07T18:13:31;6.10;99.90